UGSBDNMM

Guest
Details From UGSB - Batumi
To DNMM - Lagos Murtala Muhammed
Flight Number -
Tags Generated
Created
Modified
Stats Distance 2,928 nm / 5,422 km
Max Altitude 0 ft / 0 m
Waypoints 4
Social Downloads 0
Likes 0
Share VATSIM

Download

Looking for another format? Having issues loading an existing format? Contact us
Advertisement - Login to hide

Notes

Generated

Route

UGSB ABILO LA DNMM

ID Type Via Altitude Latitude Longitude Leg Dist Tot Dist Heading (true) Name
O UGSB APT - 0 ft / 0 m 41.61622˚ 41.59016˚ - 0 nm - -
ABILO FIX - 0 ft / 0 m 34.32361˚ 30.00000˚ 700 nm 700 nm 235° / 228° -
LA NDB - 0 ft / 0 m 6.60648˚ 3.32793˚ 2225 nm 2926 nm 228° / 218° LAGOS NDB
O DNMM APT - 0 ft / 0 m 6.59701˚ 3.32914˚ 0 nm 2927 nm 173° / 173° -

Altitude Profile

Advertisement - Login to hide

Weather


0- 5 10 15 20 25 30 35+ Temperature / ° C

Clouds and Precipitation
Forecast for 2018-05-25 06:00 UTC. Updated an hour ago

Ground ~20,000 ft ~40,000 ft Winds

UGSB

Details ICAO UGSB (BUS)
Name BATUMI
Region Georgia
Timezone Asia/Tbilisi (UTC+4.0)
Stats Elevation 105 ft / 32 m (AMSL)
Location 41.609660° 41.600318°
Runways 1
Magnetic Variation 6.584° E

METAR

UGSB 250600Z 32004KT 9999 FEW023 SCT120 23/18 Q1012 NOSIG

Decode

TAF

Not found

Departure Runways

ID Width Length Bearing (true) Bearing (mag) Surface Threshold Offset Overrun Length
13 150 ft / 46 m 7,321 ft / 2,232 m 130.81° 124.23° Asphalt 0 ft / 0 m 690 ft / 210 m
31 150 ft / 46 m 7,321 ft / 2,232 m 310.82° 304.24° Asphalt 0 ft / 0 m 0 ft / 0 m

DNMM

Details ICAO DNMM (LOS)
Name Lagos Murtala Muhammed
Region Nigeria
Timezone Africa/Lagos (UTC+1.0)
Stats Elevation 135 ft / 41 m (AMSL)
Location 6.577380° 3.321347°
Runways 2
Magnetic Variation 2.179° W

METAR

DNMM 250500Z VRB02KT 9999 SCT009 26/25 Q1012 NOSIG

Decode

TAF

TAF DNMM 250340Z 2506/2612 VRB02KT 9999 SCT010 FEW020CB TEMPO 2506/2508 TS PROB30 2506/2509 25010KT 5000 -TSRA BKN009 FEW019CB BECMG 2509/2511 20010KT BKN013 FEW020CB

Decode

Destination Runways

ID Width Length Bearing (true) Bearing (mag) Surface Threshold Offset Overrun Length
18L 148 ft / 45 m 9,049 ft / 2,758 m 180.00° 182.18° Asphalt 300 ft / 91 m 0 ft / 0 m
18R 197 ft / 60 m 12,867 ft / 3,922 m 180.00° 182.18° Asphalt 600 ft / 183 m 0 ft / 0 m
36L 197 ft / 60 m 12,867 ft / 3,922 m 0.00° 2.18° Asphalt 600 ft / 183 m 0 ft / 0 m
36R 148 ft / 45 m 9,049 ft / 2,758 m 0.00° 2.18° Asphalt 300 ft / 91 m 0 ft / 0 m

Approach Navaids

Runway Type Ident Frequency Range Bearing (true) Bearing (mag) Slope Elevation
18L Localiser ILA 110.30 MHz 18 nm / 33 km 179.94° 182.12° - 92 ft / 28 m (AMSL)
18L Glidescope ILA 110.30 MHz 10 nm / 19 km 179.94° 182.12° 3.00° 177 ft / 54 m (AMSL)
18L DME ILA 108.10 MHz 18 nm / 33 km - - - 135 ft / 41 m (AMSL)
18R Localiser ILB 108.10 MHz 18 nm / 33 km 179.94° 182.12° - 56 ft / 17 m (AMSL)
18R Glidescope ILB 108.10 MHz 10 nm / 19 km 179.94° 182.12° 3.00° 105 ft / 32 m (AMSL)
18R DME ILB 109.30 MHz 18 nm / 33 km - - - 135 ft / 41 m (AMSL)